Time;durP1;ratioP1;P1;durP2;ratioP2;P2;SDS_P1;SDS_P2;PMS_P1;PMS_P2;Temp;Humidity;BMP_temperature;BMP_pressure;BME280_temperature;BME280_humidity;BME280_pressure;Samples;Min_cycle;Max_cycle;Signal;HPM_P1;HPM_P2
2021/04/20 00:00:14;;;;;;;6.53;5.22;;;12.90;67.00;13.20;99503.00;;;;337629;28;84591;-89
2021/04/20 00:00:25;;;;;;;6.18;5.57;;;12.90;67.00;13.20;99511.00;;;;338489;28;93121;-89
2021/04/20 00:00:36;;;;;;;6.85;5.72;;;12.90;67.10;13.20;99509.00;;;;339070;28;82872;-88
2021/04/20 00:00:48;;;;;;;6.82;5.20;;;12.90;67.00;13.10;99507.00;;;;335661;28;94235;-89
2021/04/20 00:00:59;;;;;;;7.60;5.47;;;12.90;67.20;13.10;99505.00;;;;339076;28;85274;-89
2021/04/20 00:01:11;;;;;;;7.25;5.57;;;12.90;67.30;13.00;99504.00;;;;340923;28;95246;-89
2021/04/20 00:01:22;;;;;;;7.28;5.88;;;12.90;67.30;12.90;99510.00;;;;336502;28;83387;-89
2021/04/20 00:01:34;;;;;;;6.30;5.55;;;12.90;67.50;12.90;99503.00;;;;335654;28;95780;-89
2021/04/20 00:01:46;;;;;;;6.22;5.53;;;12.80;67.40;12.90;99512.00;;;;336795;28;84937;-89
2021/04/20 00:01:57;;;;;;;7.05;5.70;;;12.90;67.50;12.90;99508.00;;;;338238;28;97731;-89
2021/04/20 00:02:10;;;;;;;7.53;6.15;;;12.80;67.40;13.00;99503.00;;;;338940;28;84043;-89
2021/04/20 00:02:22;;;;;;;6.65;5.75;;;12.80;67.40;13.00;99508.00;;;;338435;28;94929;-89
2021/04/20 00:02:33;;;;;;;6.10;5.50;;;12.80;67.40;13.00;99504.00;;;;340169;28;82502;-89
2021/04/20 00:02:44;;;;;;;6.30;5.70;;;12.80;67.40;13.00;99508.00;;;;338255;28;96018;-89
2021/04/20 00:02:56;;;;;;;7.07;6.38;;;12.80;68.10;13.10;99508.00;;;;339154;28;83455;-89
2021/04/20 00:03:08;;;;;;;7.65;5.88;;;12.80;67.50;13.00;99504.00;;;;335778;28;94347;-88
2021/04/20 00:03:19;;;;;;;8.23;5.28;;;12.80;67.50;13.10;99513.00;;;;337847;28;82692;-89
2021/04/20 00:03:34;;;;;;;7.80;5.25;;;12.80;67.40;13.00;99509.00;;;;337071;28;95431;-89
2021/04/20 00:03:47;;;;;;;6.65;5.50;;;12.80;67.40;13.00;99510.00;;;;338854;28;82940;-89
2021/04/20 00:03:59;;;;;;;6.18;5.40;;;12.80;67.40;13.00;99512.00;;;;336979;28;95948;-89
2021/04/20 00:04:10;;;;;;;6.68;5.50;;;12.80;67.50;12.80;99512.00;;;;336489;28;83513;-89
2021/04/20 00:04:22;;;;;;;8.00;5.88;;;12.80;67.80;12.90;99503.00;;;;335888;28;93087;-89
2021/04/20 00:04:33;;;;;;;7.80;5.68;;;12.80;67.90;13.00;99503.00;;;;339067;28;83442;-89
2021/04/20 00:04:44;;;;;;;9.75;5.50;;;12.70;67.70;13.10;99510.00;;;;338026;28;96505;-88
2021/04/20 00:04:56;;;;;;;9.65;5.30;;;12.80;67.80;13.10;99513.00;;;;338931;28;82527;-89
2021/04/20 00:05:12;;;;;;;7.93;5.15;;;12.70;67.80;13.20;99509.00;;;;336916;28;98343;-89
2021/04/20 00:05:23;;;;;;;5.25;4.75;;;12.70;67.80;13.10;99505.00;;;;335011;29;83410;-89
2021/04/20 00:05:35;;;;;;;5.43;4.93;;;12.70;67.80;13.10;99509.00;;;;335458;28;93663;-89
2021/04/20 00:05:46;;;;;;;6.07;5.47;;;12.70;67.70;13.20;99504.00;;;;333828;29;83444;-89
2021/04/20 00:05:58;;;;;;;7.05;5.75;;;12.70;67.70;13.30;99515.00;;;;336849;28;95985;-89
2021/04/20 00:06:09;;;;;;;7.18;5.60;;;12.80;67.90;13.30;99504.00;;;;335250;29;82463;-89
2021/04/20 00:06:21;;;;;;;7.35;5.72;;;12.80;67.90;13.20;99503.00;;;;335828;28;94026;-89
2021/04/20 00:06:33;;;;;;;6.47;5.78;;;12.80;67.70;13.30;99511.00;;;;336547;28;83388;-89
2021/04/20 00:06:44;;;;;;;7.18;6.07;;;12.80;67.60;13.20;99502.00;;;;336934;28;94104;-89
2021/04/20 00:06:56;;;;;;;8.50;5.85;;;12.80;67.50;13.20;99508.00;;;;338916;28;83462;-89
2021/04/20 00:07:07;;;;;;;8.98;5.93;;;12.80;67.50;13.20;99509.00;;;;337111;28;94547;-89
2021/04/20 00:07:19;;;;;;;6.97;5.28;;;12.90;67.40;13.20;99503.00;;;;334974;29;83381;-89
2021/04/20 00:07:31;;;;;;;5.65;5.15;;;12.80;67.40;13.20;99505.00;;;;335855;28;94415;-89
2021/04/20 00:07:42;;;;;;;5.60;5.10;;;12.80;67.30;13.10;99504.00;;;;336641;28;83444;-89
2021/04/20 00:07:54;;;;;;;5.85;5.30;;;12.80;67.50;13.00;99507.00;;;;338297;28;94869;-89
2021/04/20 00:08:06;;;;;;;6.20;5.60;;;12.80;67.50;13.10;99512.00;;;;337840;28;82288;-89
2021/04/20 00:08:17;;;;;;;6.20;5.60;;;12.80;67.30;13.00;99499.00;;;;337953;28;94574;-89
2021/04/20 00:08:29;;;;;;;6.05;5.38;;;12.80;67.30;13.10;99509.00;;;;339186;28;83371;-89
2021/04/20 00:08:40;;;;;;;6.40;5.22;;;12.80;67.50;12.90;99512.00;;;;338330;28;94371;-88
2021/04/20 00:08:53;;;;;;;6.82;5.28;;;12.80;67.70;13.10;99504.00;;;;337753;28;83456;-89
2021/04/20 00:09:07;;;;;;;6.40;5.43;;;12.80;67.50;13.10;99509.00;;;;335520;28;97379;-89
2021/04/20 00:09:18;;;;;;;6.45;5.80;;;12.80;67.70;13.00;99504.00;;;;337474;28;82733;-89
2021/04/20 00:09:30;;;;;;;6.43;5.78;;;12.80;67.70;12.90;99513.00;;;;338150;28;96277;-89
2021/04/20 00:09:42;;;;;;;7.03;5.57;;;12.80;67.80;12.80;99499.00;;;;337718;28;83686;-89
2021/04/20 00:09:54;;;;;;;6.85;5.50;;;12.80;67.80;12.80;99509.00;;;;337077;28;94646;-89
2021/04/20 00:10:11;;;;;;;6.57;5.57;;;12.80;67.90;12.90;99508.00;;;;337849;28;83391;-89
2021/04/20 00:10:23;;;;;;;6.72;6.00;;;12.70;67.80;12.90;99505.00;;;;338435;28;93204;-89
2021/04/20 00:10:34;;;;;;;6.57;5.85;;;12.80;67.60;12.80;99509.00;;;;336375;28;82477;-89
2021/04/20 00:10:46;;;;;;;8.30;5.88;;;12.70;67.70;12.70;99512.00;;;;337505;28;94434;-89
2021/04/20 00:10:57;;;;;;;7.95;5.53;;;12.70;68.10;12.70;99510.00;;;;337691;28;83364;-89
2021/04/20 00:11:09;;;;;;;7.80;5.72;;;12.70;68.10;12.70;99512.00;;;;338335;28;96007;-89
2021/04/20 00:11:21;;;;;;;6.93;5.97;;;12.70;68.00;12.60;99511.00;;;;337550;28;83427;-89
2021/04/20 00:11:33;;;;;;;6.85;6.05;;;12.70;68.00;12.60;99510.00;;;;338486;28;93366;-89
2021/04/20 00:11:45;;;;;;;6.40;5.80;;;12.70;68.00;12.50;99506.00;;;;337725;28;83515;-89
2021/04/20 00:11:56;;;;;;;8.40;5.88;;;12.70;68.10;12.40;99513.00;;;;339702;28;95145;-89
2021/04/20 00:12:09;;;;;;;8.40;6.18;;;12.60;68.10;12.40;99509.00;;;;339073;28;83429;-89
2021/04/20 00:12:20;;;;;;;6.28;5.68;;;12.60;68.10;12.40;99509.00;;;;339765;28;93178;-89
2021/04/20 00:12:32;;;;;;;6.07;5.47;;;12.60;68.30;12.40;99515.00;;;;340437;28;83380;-89
2021/04/20 00:12:44;;;;;;;5.53;5.03;;;12.60;68.20;12.40;99507.00;;;;336947;28;94398;-89
2021/04/20 00:12:55;;;;;;;6.10;5.30;;;12.50;68.20;12.60;99515.00;;;;338977;28;82670;-89
2021/04/20 00:13:07;;;;;;;6.00;5.35;;;12.60;68.10;12.60;99512.00;;;;338474;28;93998;-89
2021/04/20 00:13:19;;;;;;;6.47;5.60;;;12.50;68.10;12.50;99511.00;;;;340376;28;83349;-89
2021/04/20 00:13:31;;;;;;;6.28;5.35;;;12.50;68.20;12.60;99507.00;;;;340907;28;94921;-89
2021/04/20 00:13:42;;;;;;;6.50;5.60;;;12.60;68.20;12.60;99512.00;;;;338267;28;83527;-89
2021/04/20 00:13:54;;;;;;;7.45;6.07;;;12.50;68.30;12.60;99514.00;;;;337916;28;94115;-89
2021/04/20 00:14:06;;;;;;;7.90;6.13;;;12.60;68.50;12.50;99499.00;;;;337710;28;82570;-89
2021/04/20 00:14:18;;;;;;;8.10;5.55;;;12.50;68.50;12.50;99510.00;;;;339413;28;93803;-89
2021/04/20 00:14:29;;;;;;;8.02;5.40;;;12.50;68.70;12.60;99509.00;;;;337600;28;82660;-89
2021/04/20 00:14:41;;;;;;;7.15;5.68;;;12.50;68.70;12.50;99505.00;;;;337116;28;94519;-89
2021/04/20 00:14:53;;;;;;;7.25;5.45;;;12.50;68.50;12.30;99512.00;;;;337723;28;83393;-89
2021/04/20 00:15:13;;;;;;;6.80;5.32;;;12.50;68.50;12.40;99513.00;;;;338277;28;95558;-89
2021/04/20 00:15:29;;;;;;;6.30;5.70;;;12.50;68.60;12.60;99510.00;;;;338683;28;83546;-89
2021/04/20 00:15:40;;;;;;;8.00;6.68;;;12.40;68.70;12.60;99510.00;;;;338105;28;96427;-89
2021/04/20 00:15:52;;;;;;;9.23;6.68;;;12.40;68.90;12.50;99507.00;;;;339029;28;83455;-89
2021/04/20 00:16:04;;;;;;;7.10;5.90;;;12.40;68.90;12.40;99507.00;;;;335790;28;93375;-89
2021/04/20 00:16:16;;;;;;;6.82;5.68;;;12.40;69.10;12.30;99510.00;;;;339140;28;83343;-89
2021/04/20 00:16:27;;;;;;;6.15;5.53;;;12.40;69.10;12.30;99500.00;;;;339782;28;93229;-89
2021/04/20 00:16:39;;;;;;;7.43;6.05;;;12.40;69.10;12.30;99506.00;;;;339120;28;82343;-89
2021/04/20 00:16:50;;;;;;;7.88;6.03;;;12.40;69.10;12.40;99501.00;;;;337981;28;94127;-88
2021/04/20 00:17:04;;;;;;;7.35;5.93;;;12.40;68.80;12.50;99500.00;;;;338747;28;83629;-89
2021/04/20 00:17:16;;;;;;;6.60;6.00;;;12.40;68.70;12.60;99506.00;;;;337286;28;96752;-88
2021/04/20 00:17:27;;;;;;;6.75;5.97;;;12.40;68.60;12.70;99508.00;;;;337629;28;83551;-89
2021/04/20 00:17:38;;;;;;;7.68;6.46;;;12.40;68.70;12.70;99504.00;;;;338231;28;96379;-88
2021/04/20 00:17:55;;;;;;;7.65;6.18;;;12.40;68.70;12.70;99510.00;;;;339038;28;83489;-89
2021/04/20 00:18:07;;;;;;;6.97;5.65;;;12.40;68.70;12.80;99507.00;;;;338431;28;94686;-89
2021/04/20 00:18:19;;;;;;;8.32;5.60;;;12.40;68.70;12.70;99504.00;;;;340383;28;83689;-89
2021/04/20 00:18:30;;;;;;;8.10;6.03;;;12.50;68.70;12.70;99503.00;;;;335582;28;93454;-89
2021/04/20 00:18:42;;;;;;;7.55;6.15;;;12.50;68.70;12.70;99505.00;;;;339957;28;83798;-89
2021/04/20 00:18:54;;;;;;;8.20;6.13;;;12.50;68.60;12.70;99506.00;;;;337056;28;94278;-89
2021/04/20 00:19:07;;;;;;;9.32;6.05;;;12.50;68.60;12.70;99504.00;;;;336492;28;83347;-89
2021/04/20 00:19:18;;;;;;;8.73;5.90;;;12.50;68.70;12.70;99503.00;;;;335645;28;95488;-89
2021/04/20 00:19:30;;;;;;;7.40;5.32;;;12.50;68.50;12.60;99505.00;;;;340391;28;83443;-89
2021/04/20 00:19:41;;;;;;;6.10;5.35;;;12.50;68.50;12.70;99509.00;;;;339393;28;94895;-89
2021/04/20 00:19:53;;;;;;;6.00;5.40;;;12.50;68.50;12.80;99505.00;;;;339975;28;82535;-88
2021/04/20 00:20:07;;;;;;;6.22;5.60;;;12.50;68.50;12.80;99500.00;;;;335737;28;93312;-89
2021/04/20 00:20:19;;;;;;;6.18;5.30;;;12.50;68.60;12.70;99504.00;;;;339756;28;82885;-89
2021/04/20 00:20:30;;;;;;;7.85;5.82;;;12.50;68.60;12.70;99500.00;;;;338430;28;94782;-89
2021/04/20 00:20:42;;;;;;;8.30;6.28;;;12.50;68.60;12.70;99500.00;;;;341621;28;83601;-89
2021/04/20 00:20:53;;;;;;;7.38;6.43;;;12.50;68.60;12.70;99503.00;;;;341112;28;91951;-89
2021/04/20 00:21:05;;;;;;;7.40;5.93;;;12.50;68.60;12.60;99499.00;;;;339083;28;83700;-89
2021/04/20 00:21:17;;;;;;;6.28;5.60;;;12.50;68.80;12.60;99507.00;;;;336986;28;95945;-89
2021/04/20 00:21:29;;;;;;;7.55;6.25;;;12.50;69.10;12.60;99501.00;;;;338955;28;83476;-89
2021/04/20 00:21:40;;;;;;;7.72;6.38;;;12.50;68.90;12.60;99503.00;;;;337118;28;93181;-89
2021/04/20 00:21:52;;;;;;;8.10;6.35;;;12.40;68.90;12.60;99509.00;;;;340420;28;83332;-89
2021/04/20 00:22:03;;;;;;;7.57;6.15;;;12.50;68.80;12.60;99503.00;;;;336709;28;95422;-88
2021/04/20 00:22:15;;;;;;;8.20;6.03;;;12.40;68.90;12.50;99503.00;;;;337762;28;83429;-88
2021/04/20 00:22:26;;;;;;;7.38;5.75;;;12.40;69.00;12.40;99501.00;;;;338508;28;94755;-89
2021/04/20 00:22:38;;;;;;;6.82;5.72;;;12.40;69.30;12.30;99501.00;;;;337752;28;83401;-89
2021/04/20 00:22:51;;;;;;;7.03;6.28;;;12.40;69.40;12.30;99504.00;;;;338753;28;94865;-89
2021/04/20 00:23:07;;;;;;;7.53;6.68;;;12.40;69.50;12.10;99499.00;;;;337983;28;83498;-89
2021/04/20 00:23:18;;;;;;;7.78;6.45;;;12.30;69.30;12.10;99509.00;;;;338149;28;95782;-89
2021/04/20 00:23:30;;;;;;;7.13;6.18;;;12.30;69.30;12.20;99504.00;;;;339044;28;83487;-89
2021/04/20 00:23:41;;;;;;;6.43;5.68;;;12.30;69.30;12.00;99504.00;;;;337074;28;94473;-89
2021/04/20 00:23:53;;;;;;;5.88;5.28;;;12.30;69.20;12.10;99501.00;;;;339030;28;83633;-89
2021/04/20 00:24:05;;;;;;;5.85;5.25;;;12.30;69.30;12.50;99503.00;;;;335705;28;94631;-89
2021/04/20 00:24:17;;;;;;;6.03;5.43;;;12.30;69.40;12.60;99499.00;;;;343115;28;83403;-89
2021/04/20 00:24:29;;;;;;;6.30;5.62;;;12.30;69.40;12.60;99501.00;;;;339739;28;94728;-89
2021/04/20 00:24:40;;;;;;;6.50;5.80;;;12.30;69.30;12.60;99506.00;;;;337516;28;83632;-89
2021/04/20 00:24:51;;;;;;;6.82;5.78;;;12.30;69.20;12.50;99506.00;;;;339665;28;95189;-89
2021/04/20 00:25:03;;;;;;;6.43;5.65;;;12.30;69.20;12.40;99502.00;;;;337632;28;83798;-89
2021/04/20 00:25:15;;;;;;;6.63;5.85;;;12.30;69.50;12.50;99504.00;;;;337032;28;97235;-88
2021/04/20 00:25:26;;;;;;;6.75;6.05;;;12.30;69.30;12.40;99504.00;;;;337461;28;82539;-89
2021/04/20 00:25:39;;;;;;;6.13;5.53;;;12.30;69.20;12.30;99499.00;;;;336976;28;97040;-89
2021/04/20 00:25:50;;;;;;;6.35;5.75;;;12.30;69.40;12.30;99503.00;;;;335953;28;82678;-89
2021/04/20 00:26:02;;;;;;;6.22;5.63;;;12.30;69.40;12.20;99496.00;;;;336881;28;94985;-89
2021/04/20 00:26:13;;;;;;;6.10;5.47;;;12.30;69.50;12.20;99502.00;;;;339262;28;85452;-89
2021/04/20 00:26:25;;;;;;;6.20;5.57;;;12.30;69.60;12.00;99505.00;;;;339513;28;97670;-88
2021/04/20 00:26:36;;;;;;;6.35;5.75;;;12.30;69.90;11.90;99507.00;;;;337763;28;84565;-89
2021/04/20 00:26:47;;;;;;;6.97;6.28;;;12.20;70.20;12.00;99502.00;;;;337982;28;96023;-89
2021/04/20 00:26:59;;;;;;;7.10;6.00;;;12.20;70.20;12.00;99507.00;;;;339141;28;83343;-89
2021/04/20 00:27:10;;;;;;;7.47;5.95;;;12.20;70.30;11.80;99497.00;;;;339712;28;95594;-88
2021/04/20 00:27:22;;;;;;;7.50;6.03;;;12.10;70.40;11.90;99498.00;;;;337712;28;83375;-88
2021/04/20 00:27:33;;;;;;;6.70;6.03;;;12.10;70.30;12.10;99505.00;;;;338254;28;98018;-89
2021/04/20 00:27:44;;;;;;;6.82;6.22;;;12.10;70.10;12.20;99500.00;;;;339093;28;83366;-89
2021/04/20 00:27:56;;;;;;;7.07;6.38;;;12.10;69.90;12.40;99507.00;;;;338399;28;94054;-89
2021/04/20 00:28:07;;;;;;;7.22;6.43;;;12.10;70.00;12.50;99500.00;;;;339112;28;83507;-89
2021/04/20 00:28:26;;;;;;;6.95;6.05;;;12.10;70.10;12.50;99503.00;;;;336928;28;94692;-89
2021/04/20 00:28:37;;;;;;;6.85;5.53;;;12.20;70.10;12.30;99495.00;;;;338978;28;83444;-89
2021/04/20 00:28:50;;;;;;;7.28;5.63;;;12.20;70.30;12.40;99503.00;;;;337887;28;95683;-89
2021/04/20 00:29:01;;;;;;;7.15;5.60;;;12.20;70.20;12.40;99500.00;;;;339023;28;82637;-89
2021/04/20 00:29:13;;;;;;;6.82;6.13;;;12.20;70.00;12.30;99491.00;;;;336908;28;94622;-89
2021/04/20 00:29:24;;;;;;;7.38;6.50;;;12.20;70.10;12.30;99501.00;;;;338999;28;82534;-89
2021/04/20 00:29:36;;;;;;;7.22;6.30;;;12.20;70.10;12.40;99490.00;;;;338400;28;94190;-89
2021/04/20 00:29:47;;;;;;;6.72;6.00;;;12.10;69.90;12.30;99504.00;;;;339173;28;82385;-88
2021/04/20 00:29:59;;;;;;;6.72;6.13;;;12.20;69.90;12.50;99501.00;;;;338094;28;95963;-88
2021/04/20 00:30:12;;;;;;;6.63;6.03;;;12.10;69.80;12.60;99499.00;;;;337570;28;82900;-89
2021/04/20 00:30:23;;;;;;;6.03;5.35;;;12.20;69.80;12.60;99500.00;;;;338422;28;93894;-89
2021/04/20 00:30:35;;;;;;;6.85;5.50;;;12.20;69.80;12.70;99502.00;;;;339187;28;83291;-89
2021/04/20 00:30:47;;;;;;;7.00;5.88;;;12.20;69.90;12.50;99500.00;;;;338348;28;94158;-89
2021/04/20 00:30:58;;;;;;;7.25;5.93;;;12.20;69.90;12.50;99499.00;;;;337749;28;82476;-89
2021/04/20 00:31:10;;;;;;;7.82;6.30;;;12.20;69.90;12.30;99502.00;;;;336988;28;95517;-89
2021/04/20 00:31:22;;;;;;;6.78;6.07;;;12.20;69.90;12.40;99491.00;;;;341736;28;83341;-89
2021/04/20 00:31:33;;;;;;;6.72;5.93;;;12.20;69.80;12.40;99500.00;;;;338434;28;94741;-89
2021/04/20 00:31:45;;;;;;;7.32;6.00;;;12.20;69.50;12.40;99496.00;;;;337121;28;83710;-88
2021/04/20 00:31:57;;;;;;;7.65;6.13;;;12.20;69.80;12.40;99504.00;;;;336961;28;93101;-88
2021/04/20 00:32:09;;;;;;;7.55;6.15;;;12.20;70.00;12.30;99497.00;;;;337395;28;84415;-89
2021/04/20 00:32:20;;;;;;;6.65;5.97;;;12.20;70.60;12.40;99494.00;;;;337199;28;93058;-89
2021/04/20 00:32:32;;;;;;;6.63;5.90;;;12.20;69.70;12.40;99499.00;;;;336356;28;83511;-89
2021/04/20 00:32:44;;;;;;;7.28;6.35;;;12.20;69.80;12.50;99493.00;;;;335738;28;94120;-89
2021/04/20 00:32:55;;;;;;;8.50;7.13;;;12.20;69.80;12.50;99495.00;;;;339109;28;83403;-89
2021/04/20 00:33:06;;;;;;;7.88;6.85;;;12.20;69.80;12.40;99495.00;;;;335520;28;95095;-89
2021/04/20 00:33:19;;;;;;;7.22;6.50;;;12.20;69.90;12.50;99490.00;;;;335126;29;83391;-89
2021/04/20 00:33:30;;;;;;;6.70;6.05;;;12.20;70.00;12.60;99492.00;;;;336789;28;92669;-89
2021/04/20 00:33:42;;;;;;;6.45;5.85;;;12.20;69.90;12.50;99494.00;;;;340366;28;82442;-89
2021/04/20 00:33:53;;;;;;;6.38;5.78;;;12.20;70.00;12.40;99504.00;;;;337039;28;95172;-89
2021/04/20 00:34:05;;;;;;;6.30;5.70;;;12.20;70.00;12.40;99499.00;;;;339126;28;82617;-88
2021/04/20 00:34:17;;;;;;;6.45;5.68;;;12.20;70.10;12.50;99499.00;;;;338424;28;95099;-89
2021/04/20 00:34:28;;;;;;;6.40;5.63;;;12.20;69.90;12.50;99501.00;;;;337771;28;83442;-89
2021/04/20 00:34:39;;;;;;;6.70;5.85;;;12.20;70.00;12.50;99495.00;;;;336995;28;94929;-89
2021/04/20 00:34:51;;;;;;;7.40;5.97;;;12.20;69.90;12.30;99494.00;;;;335761;28;83516;-89
2021/04/20 00:35:03;;;;;;;7.95;6.38;;;12.20;70.10;12.30;99503.00;;;;340883;28;92869;-89
2021/04/20 00:35:15;;;;;;;7.32;6.25;;;12.20;70.30;12.30;99499.00;;;;338964;28;83486;-89
2021/04/20 00:35:26;;;;;;;6.63;6.03;;;12.20;70.30;12.50;99495.00;;;;336768;28;95281;-89
2021/04/20 00:35:38;;;;;;;11.73;6.40;;;12.20;70.10;12.50;99487.00;;;;340265;28;83523;-89
2021/04/20 00:35:49;;;;;;;11.82;5.95;;;12.20;70.00;12.50;99493.00;;;;339565;28;93288;-89
2021/04/20 00:36:01;;;;;;;11.80;5.75;;;12.20;70.10;12.40;99497.00;;;;338793;28;85365;-89
2021/04/20 00:36:13;;;;;;;6.07;5.47;;;12.20;70.40;12.50;99499.00;;;;335530;28;94127;-88
2021/04/20 00:36:24;;;;;;;6.70;6.10;;;12.20;70.20;12.50;99496.00;;;;338891;28;82546;-90
2021/04/20 00:36:36;;;;;;;6.68;6.07;;;12.20;70.00;12.40;99498.00;;;;338410;28;94097;-88
2021/04/20 00:36:47;;;;;;;6.35;5.68;;;12.20;70.30;12.20;99499.00;;;;339129;28;83136;-89
2021/04/20 00:36:58;;;;;;;5.88;5.22;;;12.20;70.30;12.10;99500.00;;;;338468;28;95905;-89
2021/04/20 00:37:10;;;;;;;6.10;5.50;;;12.20;70.30;12.10;99500.00;;;;340182;28;82572;-88
2021/04/20 00:37:21;;;;;;;6.25;5.65;;;12.20;70.40;12.10;99495.00;;;;339990;28;93668;-88
2021/04/20 00:37:33;;;;;;;7.55;6.30;;;12.20;70.60;12.10;99508.00;;;;336780;28;82414;-89
2021/04/20 00:37:44;;;;;;;8.13;6.30;;;12.10;70.70;12.10;99501.00;;;;338286;28;94125;-88
2021/04/20 00:37:56;;;;;;;7.57;5.97;;;12.10;70.60;12.20;99497.00;;;;340259;28;83914;-89
2021/04/20 00:38:07;;;;;;;7.18;5.82;;;12.10;70.40;12.30;99499.00;;;;338538;28;94459;-88
2021/04/20 00:38:19;;;;;;;7.00;6.00;;;12.10;70.20;12.40;99507.00;;;;340591;28;82544;-88
2021/04/20 00:38:30;;;;;;;6.95;5.75;;;12.10;70.30;12.40;99499.00;;;;338765;28;93304;-90
2021/04/20 00:38:41;;;;;;;7.28;5.47;;;12.10;70.40;12.40;99502.00;;;;339446;28;83583;-89
2021/04/20 00:38:54;;;;;;;6.47;5.32;;;12.10;70.20;12.40;99497.00;;;;338636;28;95524;-89
2021/04/20 00:39:05;;;;;;;6.05;5.45;;;12.20;70.30;12.50;99490.00;;;;340699;28;82523;-89
2021/04/20 00:39:17;;;;;;;6.50;5.82;;;12.20;70.10;12.40;99499.00;;;;337310;28;94951;-89
2021/04/20 00:39:29;;;;;;;6.80;6.07;;;12.20;70.20;12.20;99499.00;;;;335284;29;83484;-89
2021/04/20 00:39:40;;;;;;;8.02;6.57;;;12.20;70.30;12.40;99498.00;;;;336036;28;94535;-89
2021/04/20 00:39:52;;;;;;;7.78;6.28;;;12.20;70.20;12.50;99502.00;;;;337879;28;83964;-89
2021/04/20 00:40:04;;;;;;;8.27;6.30;;;12.20;70.40;12.60;99497.00;;;;335919;28;93659;-89
2021/04/20 00:40:17;;;;;;;6.90;5.80;;;12.20;70.40;12.60;99506.00;;;;336703;28;83365;-89
2021/04/20 00:40:28;;;;;;;7.10;6.20;;;12.20;70.40;12.60;99495.00;;;;338174;28;94983;-89
2021/04/20 00:40:40;;;;;;;6.60;6.00;;;12.20;70.90;12.50;99499.00;;;;340417;28;83367;-89
2021/04/20 00:40:51;;;;;;;6.82;6.13;;;12.20;70.30;12.50;99488.00;;;;340010;28;95685;-89
2021/04/20 00:41:11;;;;;;;6.63;5.80;;;12.20;70.30;12.40;99494.00;;;;339135;28;83442;-89
2021/04/20 00:41:23;;;;;;;6.75;5.68;;;12.20;70.40;12.40;99501.00;;;;338678;28;93899;-89
2021/04/20 00:41:35;;;;;;;6.82;6.00;;;12.20;70.50;12.40;99492.00;;;;337831;28;83670;-89
2021/04/20 00:42:02;;;;;;;6.75;6.05;;;12.20;70.20;12.40;99502.00;;;;337600;28;94694;-89
2021/04/20 00:42:14;;;;;;;6.75;6.13;;;12.20;70.10;12.50;99495.00;;;;339238;28;82585;-89
2021/04/20 00:42:26;;;;;;;8.07;6.20;;;12.20;70.10;12.50;99493.00;;;;338405;28;96338;-89
2021/04/20 00:42:53;;;;;;;9.02;6.50;;;12.20;70.30;12.50;99506.00;;;;340495;28;83037;-89
2021/04/20 00:43:05;;;;;;;7.63;6.40;;;12.20;70.30;12.40;99501.00;;;;337185;28;95227;-88
2021/04/20 00:43:17;;;;;;;7.97;6.43;;;12.20;70.60;12.50;99501.00;;;;337843;28;83173;-89
2021/04/20 00:43:43;;;;;;;7.32;6.50;;;12.20;70.50;12.50;99496.00;;;;338305;28;94786;-89
2021/04/20 00:43:54;;;;;;;6.95;6.25;;;12.20;70.40;12.50;99492.00;;;;339005;28;83437;-89
2021/04/20 00:44:06;;;;;;;7.00;6.25;;;12.20;70.30;12.60;99499.00;;;;338160;28;95333;-88
2021/04/20 00:44:17;;;;;;;7.35;6.47;;;12.20;70.30;12.50;99489.00;;;;339843;28;83600;-89
2021/04/20 00:44:29;;;;;;;7.65;6.13;;;12.20;70.30;12.40;99504.00;;;;338163;28;95909;-88
2021/04/20 00:44:40;;;;;;;7.85;6.50;;;12.20;70.50;12.10;99496.00;;;;337746;28;83373;-89
2021/04/20 00:44:52;;;;;;;7.28;6.28;;;12.20;70.50;12.10;99499.00;;;;339439;28;95981;-89
2021/04/20 00:45:04;;;;;;;6.75;6.05;;;12.10;70.60;12.00;99496.00;;;;340447;28;83409;-89
2021/04/20 00:45:18;;;;;;;6.95;5.70;;;12.10;70.80;12.00;99502.00;;;;336981;28;94823;-89
2021/04/20 00:45:33;;;;;;;6.57;5.78;;;12.10;71.00;12.00;99495.00;;;;337780;28;82588;-89
2021/04/20 00:45:45;;;;;;;6.25;5.63;;;12.10;71.20;12.10;99495.00;;;;336786;28;95590;-88
2021/04/20 00:45:56;;;;;;;6.53;5.82;;;12.10;71.00;12.20;99494.00;;;;337377;28;83160;-89
2021/04/20 00:46:14;;;;;;;7.78;6.30;;;12.10;70.70;12.30;99504.00;;;;337042;28;93175;-89
2021/04/20 00:46:26;;;;;;;8.70;7.03;;;12.10;70.80;12.30;99499.00;;;;340177;28;83601;-89
2021/04/20 00:46:38;;;;;;;7.63;6.65;;;12.10;70.80;12.30;99496.00;;;;338394;28;93697;-87
2021/04/20 00:46:50;;;;;;;7.53;6.22;;;12.10;70.90;12.40;99492.00;;;;337897;28;82622;-89
2021/04/20 00:47:03;;;;;;;6.95;6.20;;;12.10;70.80;12.50;99489.00;;;;336047;28;94637;-89
2021/04/20 00:47:14;;;;;;;7.53;6.20;;;12.10;70.70;12.50;99492.00;;;;337654;28;83338;-89
2021/04/20 00:47:26;;;;;;;7.22;6.13;;;12.10;70.70;12.50;99485.00;;;;339441;28;97037;-89
2021/04/20 00:47:38;;;;;;;6.30;5.60;;;12.10;70.80;12.60;99497.00;;;;337748;28;82426;-88
2021/04/20 00:47:49;;;;;;;7.03;6.32;;;12.10;70.80;12.50;99488.00;;;;340936;28;94587;-89
2021/04/20 00:48:03;;;;;;;7.47;6.47;;;12.10;70.80;12.50;99487.00;;;;337741;28;83412;-89
2021/04/20 00:48:14;;;;;;;7.85;6.88;;;12.10;70.70;12.50;99494.00;;;;335449;28;96335;-89
2021/04/20 00:48:25;;;;;;;7.15;6.10;;;12.10;70.60;12.60;99497.00;;;;337449;28;83627;-89
2021/04/20 00:48:37;;;;;;;7.50;6.35;;;12.10;70.70;12.60;99480.00;;;;337087;28;94891;-88
2021/04/20 00:48:49;;;;;;;7.55;6.60;;;12.10;70.70;12.50;99500.00;;;;337737;28;82386;-89
2021/04/20 00:49:00;;;;;;;9.15;7.00;;;12.10;70.60;12.50;99482.00;;;;338410;28;94931;-89
2021/04/20 00:49:12;;;;;;;9.55;7.00;;;12.10;70.50;12.30;99493.00;;;;337745;28;83316;-88
2021/04/20 00:49:23;;;;;;;9.75;7.22;;;12.10;70.80;12.20;99497.00;;;;335367;28;94823;-89
2021/04/20 00:49:35;;;;;;;8.23;6.47;;;12.10;71.20;12.10;99493.00;;;;337642;28;83465;-89
2021/04/20 00:49:46;;;;;;;8.80;6.60;;;12.10;71.30;12.20;99487.00;;;;337378;28;95985;-89
2021/04/20 00:49:58;;;;;;;6.90;5.82;;;12.10;71.10;12.30;99497.00;;;;339011;28;82707;-89
2021/04/20 00:50:11;;;;;;;7.32;5.93;;;12.10;70.90;12.30;99491.00;;;;339578;28;96988;-88
2021/04/20 00:50:35;;;;;;;6.32;5.63;;;12.10;70.70;12.40;99492.00;;;;340428;28;83591;-89
2021/04/20 00:50:47;;;;;;;7.72;6.57;;;12.10;70.80;12.60;99494.00;;;;337456;28;96254;-89
2021/04/20 00:50:58;;;;;;;7.45;6.40;;;12.10;70.80;12.50;99488.00;;;;339119;28;83378;-89
2021/04/20 00:51:10;;;;;;;7.25;6.07;;;12.10;70.90;12.40;99491.00;;;;336983;28;96328;-88
2021/04/20 00:51:21;;;;;;;7.90;6.15;;;12.10;71.00;12.10;99501.00;;;;337584;28;83418;-89
2021/04/20 00:51:33;;;;;;;7.80;6.07;;;12.10;70.90;12.00;99497.00;;;;337082;28;94760;-89
2021/04/20 00:51:44;;;;;;;7.00;5.80;;;12.10;71.00;12.10;99487.00;;;;339034;28;83432;-89
2021/04/20 00:51:56;;;;;;;7.38;5.90;;;12.10;70.90;12.30;99493.00;;;;337033;28;94964;-89
2021/04/20 00:52:07;;;;;;;7.20;5.82;;;12.10;71.30;12.30;99487.00;;;;336348;28;84278;-89
2021/04/20 00:52:19;;;;;;;7.10;5.85;;;12.10;70.60;12.20;99491.00;;;;337081;28;93847;-88
2021/04/20 00:52:30;;;;;;;6.53;5.80;;;12.10;70.80;12.20;99494.00;;;;337699;28;82636;-89
2021/04/20 00:52:42;;;;;;;7.50;6.03;;;12.10;70.80;12.20;99490.00;;;;339264;28;97322;-89
2021/04/20 00:52:53;;;;;;;7.35;5.85;;;12.10;70.90;12.20;99493.00;;;;340570;28;82978;-88
2021/04/20 00:53:07;;;;;;;7.57;6.05;;;12.00;70.60;12.20;99484.00;;;;338382;28;94215;-89
2021/04/20 00:53:19;;;;;;;7.18;6.22;;;12.10;70.60;12.30;99493.00;;;;338219;28;84067;-89
2021/04/20 00:53:30;;;;;;;7.45;6.65;;;12.10;70.60;12.20;99492.00;;;;339757;28;95779;-89
2021/04/20 00:53:41;;;;;;;7.70;6.90;;;12.10;70.80;12.20;99482.00;;;;337773;28;84302;-89
2021/04/20 00:53:55;;;;;;;7.88;6.68;;;12.10;70.90;12.30;99483.00;;;;337094;28;94463;-89
2021/04/20 00:54:06;;;;;;;8.30;6.20;;;12.00;70.80;12.30;99490.00;;;;339054;28;83445;-89
2021/04/20 00:54:18;;;;;;;8.02;6.43;;;12.00;70.90;12.30;99497.00;;;;338430;28;93344;-88
2021/04/20 00:54:29;;;;;;;7.43;6.57;;;12.00;71.10;12.20;99494.00;;;;337806;28;82470;-88
2021/04/20 00:54:41;;;;;;;7.32;6.63;;;12.00;71.10;12.10;99490.00;;;;340987;28;93455;-89